Airfield :
LOGIN :

Register | Disclaimer

   EN    FR    IT 

 










Legend :    VFR   Marginal VFR   IFR   Intensive IFR   Very Intensive IFR
Visi :
Ceiling :
>= 8 km
>= 3000ft
5 to 8 km
1000 to 3000 ft
1500m to 5 km
500 to 1000 ft
800 to 1500m
200 to 500 ft
< 800m
< 200 ft
Symbols :   Thunderstorms  Fog  Heavy snow  Heavy precipitations  Wind > 20 kt
SIGMETs :     Misc.  Thunderstorms  Icing  Turbulence  Mountain Waves  Volcanic Ashes







- Airport Elevation : 294 ft
- IATA code : NAP


LIRN - Naples Capodichino

CURRENT METAR :
  • 250020Z 27002KT 9999 FEW030 15/13 Q1017 NOSIG

EXPIRED METARs :
  • 242350Z 00000KT 9999 FEW030 15/13 Q1017 NOSIG
  • 242320Z 00000KT 9999 FEW030 16/13 Q1017 NOSIG
  • 242250Z 00000KT 9999 FEW030 16/14 Q1017 NOSIG
  • 242220Z 00000KT 9999 FEW020 16/13 Q1017 NOSIG
  • 242150Z 00000KT 9999 FEW020 17/14 Q1017 NOSIG

TAF TAF LIRN
Valid from the 25 at 00:00 until the 26 at 00:00 UTC


242300Z 2500/2524 VRB05KT 9999 SCT030
BECMG 2509/2511 25012KT
TEMPO 2510/2514 SHRA
BECMG 2516/2518 VRB05KT
No reported NOTAMs for that airfield.



MET'MAP, your aeronautical weather chart ! - Copyright ORBIFLY December 2007 - Disclaimer

ORBIFLY MET'MAP TEAM :

Programming & Development : Alexandra Zaïnal
Concept & Development : Baudouin d'Aumeries
Co-Development & Prog : Marc-Olivier Méhu
Technical & hardware support : Manuel Goepfert

Contact : metmap@orbifly.com




SOURCES & CREDITS :

   NOAA